Time;durP1;ratioP1;P1;durP2;ratioP2;P2;SDS_P1;SDS_P2;PMS_P1;PMS_P2;Temp;Humidity;BMP_temperature;BMP_pressure;BME280_temperature;BME280_humidity;BME280_pressure;Samples;Min_cycle;Max_cycle;Signal;HPM_P1;HPM_P2
2022/09/22 00:02:04;;;;;;;6.13;1.80;;;10.80;99.90;;;;;;5115176;27;35285;-60
2022/09/22 00:04:31;;;;;;;18.23;2.38;;;10.80;99.90;;;;;;5113301;27;37268;-60
2022/09/22 00:06:58;;;;;;;10.27;1.75;;;10.80;99.90;;;;;;5115729;27;38319;-60
2022/09/22 00:09:26;;;;;;;10.27;1.73;;;10.80;99.90;;;;;;5115224;27;37874;-60
2022/09/22 00:11:54;;;;;;;2.58;1.17;;;10.70;99.90;;;;;;5115110;27;35214;-60
2022/09/22 00:14:23;;;;;;;4.93;1.58;;;10.70;99.90;;;;;;5113835;27;37826;-60
2022/09/22 00:16:52;;;;;;;2.15;0.90;;;10.70;99.90;;;;;;5115051;27;37025;-60
2022/09/22 00:19:23;;;;;;;2.50;1.25;;;10.60;99.90;;;;;;5114786;27;36796;-60
2022/09/22 00:21:51;;;;;;;4.85;1.20;;;10.60;99.90;;;;;;5115044;27;35360;-60
2022/09/22 00:24:19;;;;;;;3.03;1.08;;;10.60;99.90;;;;;;5113291;27;38502;-60
2022/09/22 00:26:47;;;;;;;14.70;1.90;;;10.50;99.90;;;;;;5113045;27;38132;-60
2022/09/22 00:29:16;;;;;;;7.53;1.10;;;10.50;99.90;;;;;;5113767;27;37056;-60
2022/09/22 00:31:44;;;;;;;4.50;1.10;;;10.40;99.90;;;;;;5113390;27;37054;-60
2022/09/22 00:34:15;;;;;;;4.43;1.27;;;10.40;99.90;;;;;;5113149;27;38623;-60
2022/09/22 00:36:44;;;;;;;2.67;1.30;;;10.40;99.90;;;;;;5115033;27;38502;-60
2022/09/22 00:39:12;;;;;;;8.82;1.45;;;10.30;99.90;;;;;;5113416;27;38263;-60
2022/09/22 00:41:43;;;;;;;2.20;1.00;;;10.20;99.90;;;;;;5114532;27;36300;-59
2022/09/22 00:44:35;;;;;;;8.77;1.40;;;10.20;99.90;;;;;;5113542;27;37542;-60
2022/09/22 00:47:21;;;;;;;3.35;1.20;;;10.10;99.90;;;;;;5113082;27;37263;-60
2022/09/22 00:49:55;;;;;;;1.35;0.82;;;10.10;99.90;;;;;;5112246;27;20549;-60
2022/09/22 00:52:30;;;;;;;1.73;1.13;;;10.00;99.90;;;;;;5113693;27;37031;-60
2022/09/22 00:55:03;;;;;;;2.95;1.40;;;10.00;99.90;;;;;;5113968;27;37776;-59
2022/09/22 00:57:33;;;;;;;4.43;1.42;;;10.00;99.90;;;;;;5114411;27;37341;-60
2022/09/22 01:00:03;;;;;;;3.90;1.40;;;10.00;99.90;;;;;;5113927;27;38014;-59
2022/09/22 01:02:31;;;;;;;1.67;1.08;;;10.00;99.90;;;;;;5113949;27;37914;-59
2022/09/22 01:04:59;;;;;;;13.18;1.50;;;9.90;99.90;;;;;;5113349;27;38278;-60
2022/09/22 01:07:30;;;;;;;3.38;1.65;;;9.90;99.90;;;;;;5114054;27;38086;-60
2022/09/22 01:09:58;;;;;;;2.25;1.30;;;9.90;99.90;;;;;;5113604;27;38349;-60
2022/09/22 01:12:27;;;;;;;3.60;1.27;;;9.80;99.90;;;;;;5114782;27;37711;-60
2022/09/22 01:15:17;;;;;;;4.13;1.60;;;9.80;99.90;;;;;;5112399;27;38237;-60
2022/09/22 01:17:54;;;;;;;1.98;1.20;;;9.80;99.90;;;;;;5113976;27;38138;-60
2022/09/22 01:20:53;;;;;;;1.60;1.10;;;9.70;99.90;;;;;;5113487;27;37503;-60
2022/09/22 01:23:52;;;;;;;2.28;1.10;;;9.80;99.90;;;;;;5112079;27;39137;-59
2022/09/22 01:26:44;;;;;;;4.30;1.20;;;9.80;99.90;;;;;;5112385;27;37524;-60
2022/09/22 01:29:35;;;;;;;9.73;2.10;;;9.70;99.90;;;;;;5113792;27;39370;-60
2022/09/22 01:32:09;;;;;;;1.92;1.00;;;9.70;99.90;;;;;;5112464;27;36850;-60
2022/09/22 01:34:45;;;;;;;3.15;1.50;;;9.60;99.90;;;;;;5113610;27;37858;-60
2022/09/22 01:37:17;;;;;;;2.53;1.30;;;9.70;99.90;;;;;;5114677;27;38151;-60
2022/09/22 01:39:48;;;;;;;2.42;0.93;;;9.70;99.90;;;;;;5111914;27;38875;-60
2022/09/22 01:42:22;;;;;;;4.80;1.30;;;9.60;99.90;;;;;;5114325;27;35898;-60
2022/09/22 01:44:54;;;;;;;2.10;1.15;;;9.60;99.90;;;;;;5112698;27;35394;-59
2022/09/22 01:47:27;;;;;;;2.17;1.10;;;9.60;99.90;;;;;;5113766;27;37355;-60
2022/09/22 01:49:57;;;;;;;;;;;9.60;99.90;;;;;;5113706;27;37955;-60
2022/09/22 01:52:28;;;;;;;3.80;1.50;;;9.60;99.90;;;;;;5117529;27;37491;-60
2022/09/22 01:54:58;;;;;;;1.92;1.10;;;9.60;99.90;;;;;;5116149;27;36023;-60
2022/09/22 01:57:37;;;;;;;8.27;1.60;;;9.60;99.90;;;;;;5117753;27;37785;-60
2022/09/22 02:00:08;;;;;;;3.42;1.48;;;9.60;99.90;;;;;;5116373;27;36277;-60
2022/09/22 02:02:42;;;;;;;11.73;1.27;;;9.50;99.90;;;;;;5116972;27;37707;-60
2022/09/22 02:05:15;;;;;;;16.42;1.35;;;9.50;99.90;;;;;;5115611;27;37347;-60
2022/09/22 02:07:47;;;;;;;4.78;1.02;;;9.50;99.90;;;;;;5116954;27;36544;-60
2022/09/22 02:10:18;;;;;;;2.65;1.00;;;9.40;99.90;;;;;;5116701;27;37382;-59
2022/09/22 02:12:48;;;;;;;1.30;0.85;;;9.40;99.90;;;;;;5117793;27;38320;-60
2022/09/22 02:18:05;;;;;;;10.95;1.23;;;9.40;99.90;;;;;;5117044;27;37698;-59
2022/09/22 02:20:33;;;;;;;2.85;0.80;;;9.30;99.90;;;;;;5115357;27;37210;-60
2022/09/22 02:23:01;;;;;;;1.50;0.90;;;9.30;99.90;;;;;;5117386;27;37022;-60
2022/09/22 02:25:28;;;;;;;2.25;0.90;;;9.30;99.90;;;;;;5115770;27;36488;-60
2022/09/22 02:27:56;;;;;;;2.50;1.10;;;9.30;99.90;;;;;;5116620;27;38291;-60
2022/09/22 02:30:24;;;;;;;1.85;1.00;;;9.30;99.90;;;;;;5115699;27;38246;-60
2022/09/22 02:32:54;;;;;;;1.00;0.70;;;9.30;99.90;;;;;;5116247;27;37609;-59
2022/09/22 02:35:25;;;;;;;2.10;0.95;;;9.20;99.90;;;;;;5115281;27;36545;-60
2022/09/22 02:37:58;;;;;;;2.42;0.85;;;9.30;99.90;;;;;;5117138;27;37420;-60
2022/09/22 02:40:30;;;;;;;5.70;1.10;;;9.20;99.90;;;;;;5115965;27;37195;-60
2022/09/22 02:43:05;;;;;;;3.78;0.68;;;9.20;99.90;;;;;;5115717;27;35789;-60
2022/09/22 02:45:40;;;;;;;1.77;0.80;;;9.20;99.90;;;;;;5115599;27;36329;-59
2022/09/22 02:48:12;;;;;;;1.50;0.88;;;9.10;99.90;;;;;;5116412;27;37646;-60
2022/09/22 02:50:42;;;;;;;1.40;0.85;;;9.10;99.90;;;;;;5115931;27;37651;-59
2022/09/22 02:53:13;;;;;;;1.52;1.00;;;9.10;99.90;;;;;;5117285;27;36082;-59
2022/09/22 02:55:41;;;;;;;1.83;0.88;;;9.10;99.90;;;;;;5116245;27;36522;-60
2022/09/22 02:58:08;;;;;;;2.95;0.95;;;9.20;99.90;;;;;;5116959;27;38290;-60
2022/09/22 03:00:36;;;;;;;1.20;0.80;;;9.10;99.90;;;;;;5116212;27;37702;-60
2022/09/22 03:03:03;;;;;;;2.08;0.90;;;9.20;99.90;;;;;;5116396;27;35855;-59
2022/09/22 03:05:31;;;;;;;1.58;0.70;;;9.10;99.90;;;;;;5114846;27;36675;-59
2022/09/22 03:07:59;;;;;;;2.38;1.00;;;9.10;99.90;;;;;;5115451;27;38375;-60
2022/09/22 03:10:27;;;;;;;2.90;0.80;;;9.10;99.90;;;;;;5114131;27;37417;-59
2022/09/22 03:12:56;;;;;;;2.58;1.25;;;9.10;99.90;;;;;;5115738;27;37088;-59
2022/09/22 03:15:23;;;;;;;1.67;1.00;;;9.10;99.90;;;;;;5116075;27;37196;-59
2022/09/22 03:17:51;;;;;;;2.72;1.00;;;9.10;99.90;;;;;;5116244;27;39489;-60
2022/09/22 03:20:18;;;;;;;1.85;0.75;;;9.00;99.90;;;;;;5115410;27;38540;-59
2022/09/22 03:22:45;;;;;;;1.85;0.80;;;9.00;99.90;;;;;;5116490;27;37569;-59
2022/09/22 03:25:14;;;;;;;1.63;0.90;;;9.00;99.90;;;;;;5114728;27;38755;-59
2022/09/22 03:27:41;;;;;;;2.67;1.15;;;9.00;99.90;;;;;;5115531;27;38258;-60
2022/09/22 03:30:10;;;;;;;2.70;1.10;;;9.00;99.90;;;;;;5115916;27;38065;-59
2022/09/22 03:32:37;;;;;;;1.83;0.90;;;8.90;99.90;;;;;;5115931;27;36838;-59
2022/09/22 03:35:06;;;;;;;2.28;0.90;;;8.90;99.90;;;;;;5115261;27;36327;-59
2022/09/22 03:37:34;;;;;;;1.33;0.80;;;8.90;99.90;;;;;;5115657;27;37569;-59
2022/09/22 03:40:02;;;;;;;2.03;0.98;;;9.00;99.90;;;;;;5115434;27;38051;-59
2022/09/22 03:42:31;;;;;;;2.92;1.15;;;9.00;99.90;;;;;;5116880;27;36842;-60
2022/09/22 03:44:59;;;;;;;2.35;0.90;;;8.90;99.90;;;;;;5114736;27;36492;-59
2022/09/22 03:47:26;;;;;;;2.50;0.98;;;9.00;99.90;;;;;;5116134;27;37712;-59
2022/09/22 03:49:53;;;;;;;3.80;1.27;;;9.00;99.90;;;;;;5115615;27;37934;-59
2022/09/22 03:52:20;;;;;;;3.25;1.40;;;9.00;99.90;;;;;;5115852;27;36754;-59
2022/09/22 03:54:48;;;;;;;2.15;1.10;;;9.00;99.90;;;;;;5114554;27;36543;-59
2022/09/22 03:57:15;;;;;;;3.60;1.45;;;8.90;99.90;;;;;;5115920;27;37518;-59
2022/09/22 03:59:44;;;;;;;3.08;1.05;;;9.00;99.90;;;;;;5114341;27;37386;-59
2022/09/22 04:02:11;;;;;;;4.00;1.55;;;9.00;99.90;;;;;;5115516;27;35645;-59
2022/09/22 04:04:38;;;;;;;2.63;1.10;;;9.00;99.90;;;;;;5114587;27;37333;-59
2022/09/22 04:07:06;;;;;;;4.43;1.35;;;9.00;99.90;;;;;;5114451;27;37146;-59
2022/09/22 04:09:33;;;;;;;3.20;1.67;;;9.00;99.90;;;;;;5114273;27;37452;-59
2022/09/22 04:12:00;;;;;;;4.60;1.38;;;9.00;99.90;;;;;;5115228;27;37518;-59
2022/09/22 04:14:28;;;;;;;3.38;1.13;;;9.00;99.90;;;;;;5114209;27;35232;-59
2022/09/22 04:16:57;;;;;;;4.03;1.60;;;9.00;99.90;;;;;;5114892;27;37566;-59
2022/09/22 04:19:24;;;;;;;3.05;1.38;;;9.00;99.90;;;;;;5114890;27;37396;-59
2022/09/22 04:21:51;;;;;;;5.13;1.63;;;9.00;99.90;;;;;;5115870;27;37793;-59
2022/09/22 04:24:19;;;;;;;5.90;1.58;;;9.00;99.90;;;;;;5114033;27;36915;-59
2022/09/22 04:26:46;;;;;;;3.75;1.80;;;9.00;99.90;;;;;;5114049;27;37420;-59
2022/09/22 04:29:14;;;;;;;5.55;1.77;;;9.00;99.90;;;;;;5115392;27;37207;-59
2022/09/22 04:31:41;;;;;;;3.78;1.58;;;9.10;99.90;;;;;;5114511;27;39612;-59
2022/09/22 04:34:09;;;;;;;4.35;1.88;;;9.10;99.90;;;;;;5115323;27;36683;-59
2022/09/22 04:36:37;;;;;;;3.90;1.60;;;9.00;99.90;;;;;;5111719;27;37525;-59
2022/09/22 04:39:04;;;;;;;4.30;1.70;;;9.00;99.90;;;;;;5115099;27;37168;-59
2022/09/22 04:41:31;;;;;;;5.13;1.90;;;9.00;99.90;;;;;;5114876;27;37018;-59
2022/09/22 04:43:59;;;;;;;5.07;1.67;;;9.00;99.90;;;;;;5115365;27;37393;-59
2022/09/22 04:46:26;;;;;;;3.42;1.40;;;9.00;99.90;;;;;;5113777;27;36395;-59
2022/09/22 04:48:53;;;;;;;3.95;1.80;;;9.10;99.90;;;;;;5114016;27;38080;-59
2022/09/22 04:51:22;;;;;;;3.67;1.50;;;9.10;99.90;;;;;;5112936;27;36842;-59
2022/09/22 04:53:49;;;;;;;5.78;1.77;;;9.10;99.90;;;;;;5113633;27;36408;-59
2022/09/22 04:56:17;;;;;;;5.18;1.50;;;9.10;99.90;;;;;;5115209;27;38385;-59
2022/09/22 04:58:44;;;;;;;7.35;2.00;;;9.10;99.90;;;;;;5114810;27;37435;-59
2022/09/22 05:01:11;;;;;;;3.78;1.70;;;9.10;99.90;;;;;;5113349;27;37553;-59
2022/09/22 05:03:39;;;;;;;3.22;1.50;;;9.10;99.90;;;;;;5112939;27;36513;-59
2022/09/22 05:06:07;;;;;;;4.47;1.70;;;9.00;99.90;;;;;;5113766;27;38721;-59
2022/09/22 05:08:35;;;;;;;5.65;1.90;;;9.00;99.90;;;;;;5114917;27;36775;-58
2022/09/22 05:11:05;;;;;;;6.28;1.67;;;9.10;99.90;;;;;;5114835;27;36798;-58
2022/09/22 05:13:32;;;;;;;5.18;1.90;;;9.10;99.90;;;;;;5115112;27;36427;-58
2022/09/22 05:16:00;;;;;;;5.13;2.20;;;9.00;99.90;;;;;;5113708;27;38415;-57
2022/09/22 05:18:27;;;;;;;4.05;1.70;;;9.00;99.90;;;;;;5115269;27;37272;-59
2022/09/22 05:20:55;;;;;;;7.20;2.10;;;9.10;99.90;;;;;;5115162;27;37418;-58
2022/09/22 05:23:22;;;;;;;6.18;2.30;;;9.00;99.90;;;;;;5114344;27;36479;-58
2022/09/22 05:25:51;;;;;;;6.32;1.98;;;9.00;99.90;;;;;;5117495;27;37551;-59
2022/09/22 05:28:19;;;;;;;4.82;1.77;;;9.10;99.90;;;;;;5113813;27;37330;-58
2022/09/22 05:30:49;;;;;;;5.07;1.85;;;9.00;99.90;;;;;;5117880;27;37705;-58
2022/09/22 05:33:17;;;;;;;4.22;1.90;;;9.00;99.90;;;;;;5119015;27;37511;-58
2022/09/22 05:35:44;;;;;;;4.88;1.92;;;9.00;99.90;;;;;;5116503;27;37005;-58
2022/09/22 05:38:11;;;;;;;4.72;1.95;;;9.00;99.90;;;;;;5118693;27;37974;-58
2022/09/22 05:40:39;;;;;;;6.32;2.33;;;9.00;99.90;;;;;;5118807;27;37238;-59
2022/09/22 05:43:07;;;;;;;4.60;1.58;;;9.00;99.90;;;;;;5118813;27;34807;-59
2022/09/22 05:45:35;;;;;;;4.38;1.92;;;9.00;99.90;;;;;;5116883;27;36165;-59
2022/09/22 05:48:02;;;;;;;5.72;2.00;;;9.40;99.90;;;;;;5117172;27;37292;-58
2022/09/22 05:50:29;;;;;;;5.72;1.90;;;9.00;99.90;;;;;;5116368;27;37974;-58
2022/09/22 05:53:05;;;;;;;6.15;2.22;;;9.00;99.90;;;;;;5117710;27;36615;-59
2022/09/22 05:55:32;;;;;;;4.90;1.85;;;9.00;99.90;;;;;;5118023;27;37331;-58
2022/09/22 05:58:00;;;;;;;5.10;1.80;;;9.10;99.90;;;;;;5117426;27;38134;-58
2022/09/22 06:00:30;;;;;;;8.90;2.10;;;9.00;99.90;;;;;;5115613;27;37016;-58
2022/09/22 06:02:57;;;;;;;5.63;1.67;;;9.10;99.90;;;;;;5117345;27;35302;-58
2022/09/22 06:05:24;;;;;;;4.47;1.75;;;9.10;99.90;;;;;;5116253;27;38515;-58
2022/09/22 06:08:02;;;;;;;4.07;1.50;;;9.10;99.90;;;;;;5117832;27;37406;-58
2022/09/22 06:10:30;;;;;;;4.85;1.70;;;9.10;99.90;;;;;;5117310;27;36974;-58
2022/09/22 06:13:00;;;;;;;5.50;1.77;;;9.10;99.90;;;;;;5117561;27;36552;-58
2022/09/22 06:15:30;;;;;;;4.70;1.92;;;9.10;99.90;;;;;;5115842;27;36883;-58
2022/09/22 06:17:57;;;;;;;6.50;2.60;;;9.10;99.90;;;;;;5117847;27;36958;-58
2022/09/22 06:20:24;;;;;;;6.82;2.53;;;9.20;99.90;;;;;;5116991;27;36993;-58
2022/09/22 06:22:53;;;;;;;10.23;2.90;;;9.20;99.90;;;;;;5117858;27;37853;-58
2022/09/22 06:25:22;;;;;;;8.10;2.90;;;9.30;99.90;;;;;;5116892;27;38574;-58
2022/09/22 06:27:59;;;;;;;5.88;2.33;;;9.30;99.90;;;;;;5117178;27;37287;-58
2022/09/22 06:30:26;;;;;;;4.93;2.45;;;9.30;99.90;;;;;;5117192;27;36821;-59
2022/09/22 06:32:55;;;;;;;7.47;2.70;;;9.40;99.90;;;;;;5116757;27;36405;-59
2022/09/22 06:35:23;;;;;;;6.25;2.97;;;9.40;99.90;;;;;;5116582;27;37439;-58
2022/09/22 06:37:56;;;;;;;8.15;3.03;;;9.50;99.90;;;;;;5116172;27;39121;-59
2022/09/22 06:40:24;;;;;;;8.10;3.00;;;9.50;99.90;;;;;;5117574;27;36996;-59
2022/09/22 06:42:56;;;;;;;5.90;3.15;;;9.50;99.90;;;;;;5117333;27;36422;-59
2022/09/22 06:45:25;;;;;;;7.00;2.78;;;9.60;99.90;;;;;;5115700;27;37470;-59
2022/09/22 06:47:58;;;;;;;7.22;2.95;;;9.70;99.90;;;;;;5116228;27;38133;-59
2022/09/22 06:50:29;;;;;;;6.22;2.83;;;9.70;99.90;;;;;;5117480;27;37174;-60
2022/09/22 06:52:58;;;;;;;6.13;3.20;;;9.80;99.90;;;;;;5117202;27;37859;-59
2022/09/22 06:55:26;;;;;;;7.75;3.22;;;9.80;99.90;;;;;;5116136;27;37331;-59
2022/09/22 06:57:53;;;;;;;12.27;3.63;;;9.90;99.90;;;;;;5117051;27;37332;-59
2022/09/22 07:00:20;;;;;;;9.13;3.60;;;10.00;99.90;;;;;;5117238;27;37417;-59
2022/09/22 07:02:48;;;;;;;5.97;3.15;;;10.10;99.90;;;;;;5117041;27;36890;-59
2022/09/22 07:05:20;;;;;;;8.48;3.58;;;10.20;99.90;;;;;;5116864;27;38254;-59
2022/09/22 07:07:47;;;;;;;7.53;3.38;;;10.20;99.90;;;;;;5117330;27;38489;-59
2022/09/22 07:10:14;;;;;;;8.40;3.60;;;10.30;99.90;;;;;;5116343;27;36892;-59
2022/09/22 07:12:42;;;;;;;10.65;3.38;;;10.40;99.90;;;;;;5116537;27;35293;-59
2022/09/22 07:15:11;;;;;;;6.85;3.17;;;10.50;99.90;;;;;;5115758;27;37966;-59
2022/09/22 07:17:38;;;;;;;6.97;3.50;;;10.50;99.90;;;;;;5116508;27;37432;-59
2022/09/22 07:20:06;;;;;;;9.18;3.97;;;10.60;99.90;;;;;;5116471;27;37394;-59
2022/09/22 07:22:38;;;;;;;8.90;3.50;;;10.60;99.90;;;;;;5116987;27;37916;-59
2022/09/22 07:25:07;;;;;;;8.02;4.03;;;10.70;99.90;;;;;;5116261;27;38873;-59
2022/09/22 07:27:35;;;;;;;10.50;4.38;;;10.80;99.90;;;;;;5116799;27;37307;-60
2022/09/22 07:30:02;;;;;;;9.07;4.13;;;10.80;99.90;;;;;;5116369;27;38110;-58
2022/09/22 07:32:34;;;;;;;7.05;3.75;;;10.80;99.90;;;;;;5117311;27;37845;-59
2022/09/22 07:35:01;;;;;;;10.88;4.80;;;11.00;99.90;;;;;;5115990;27;37520;-59
2022/09/22 07:37:31;;;;;;;8.90;3.97;;;11.00;99.90;;;;;;5115410;27;38379;-59
2022/09/22 07:40:01;;;;;;;8.48;4.03;;;11.10;99.90;;;;;;5116407;27;37822;-59
2022/09/22 07:42:28;;;;;;;11.05;4.78;;;11.10;99.90;;;;;;5116571;27;36515;-59
2022/09/22 07:45:14;;;;;;;7.18;4.40;;;11.20;99.90;;;;;;5115960;27;36278;-59
2022/09/22 07:50:29;;;;;;;11.55;4.70;;;11.30;99.90;;;;;;5116901;27;38061;-59
2022/09/22 07:52:56;;;;;;;9.55;4.97;;;11.40;99.90;;;;;;5115192;27;38215;-59
2022/09/22 07:55:25;;;;;;;10.27;4.60;;;11.50;99.90;;;;;;5115927;27;38360;-59
2022/09/22 07:57:56;;;;;;;7.95;4.22;;;11.60;99.90;;;;;;5116284;27;38939;-59
2022/09/22 08:00:24;;;;;;;12.15;4.43;;;11.60;99.90;;;;;;5115921;27;37551;-59
2022/09/22 08:02:54;;;;;;;8.63;4.65;;;11.70;99.90;;;;;;5116676;27;36608;-59
2022/09/22 08:05:22;;;;;;;10.73;4.97;;;11.70;99.90;;;;;;5115178;27;38629;-60
2022/09/22 08:07:50;;;;;;;7.32;4.10;;;11.80;99.90;;;;;;5116435;27;36988;-59
2022/09/22 08:10:18;;;;;;;8.43;3.88;;;11.80;99.90;;;;;;5115368;27;37576;-59
2022/09/22 08:12:47;;;;;;;7.63;4.25;;;11.90;99.90;;;;;;5116541;27;36569;-59
2022/09/22 08:15:14;;;;;;;6.85;3.80;;;12.00;99.90;;;;;;5115269;27;37630;-59
2022/09/22 08:17:42;;;;;;;10.90;4.20;;;12.10;99.90;;;;;;5115354;27;36187;-59
2022/09/22 08:20:11;;;;;;;7.93;4.10;;;12.20;99.90;;;;;;5115017;27;37252;-59
2022/09/22 08:22:38;;;;;;;7.43;3.95;;;12.30;99.90;;;;;;5114818;27;35265;-59
2022/09/22 08:25:06;;;;;;;12.77;3.97;;;12.30;99.90;;;;;;5115618;27;37385;-59
2022/09/22 08:27:35;;;;;;;7.38;3.30;;;12.40;99.90;;;;;;5114509;27;37455;-59
2022/09/22 08:30:06;;;;;;;8.73;3.70;;;12.50;99.90;;;;;;5115837;27;37752;-59
2022/09/22 08:32:34;;;;;;;5.55;3.10;;;12.60;99.90;;;;;;5115326;27;37964;-59
2022/09/22 08:35:02;;;;;;;9.23;2.67;;;12.70;99.90;;;;;;5115260;27;38389;-59
2022/09/22 08:37:31;;;;;;;5.93;2.83;;;12.80;99.90;;;;;;5114615;27;36035;-59
2022/09/22 08:39:58;;;;;;;8.02;3.45;;;12.90;99.90;;;;;;5115227;27;35853;-59
2022/09/22 08:42:27;;;;;;;8.98;3.08;;;13.00;99.90;;;;;;5115321;27;36713;-59
2022/09/22 08:45:02;;;;;;;11.90;3.00;;;13.10;99.90;;;;;;5115225;27;39375;-59
2022/09/22 08:53:18;;;;;;;6.07;2.63;;;13.40;99.90;;;;;;5115439;27;38494;-59
2022/09/22 08:55:52;;;;;;;6.00;2.40;;;13.50;99.90;;;;;;5113670;27;37363;-59
2022/09/22 08:58:40;;;;;;;5.32;2.50;;;13.60;99.90;;;;;;5114963;27;37214;-59
2022/09/22 09:01:23;;;;;;;7.60;2.92;;;13.70;99.90;;;;;;5115671;27;39160;-59
2022/09/22 09:04:02;;;;;;;5.70;2.50;;;13.80;99.90;;;;;;5114800;27;37715;-59
2022/09/22 09:06:39;;;;;;;5.55;2.13;;;13.90;99.90;;;;;;5114631;27;36328;-59
2022/09/22 09:09:30;;;;;;;6.32;2.20;;;14.00;99.90;;;;;;5114644;27;36392;-59
2022/09/22 09:12:11;;;;;;;6.15;1.95;;;14.10;99.90;;;;;;5114382;27;37301;-59
2022/09/22 09:14:54;;;;;;;5.97;1.88;;;14.20;99.90;;;;;;5115128;27;37645;-60
2022/09/22 09:17:25;;;;;;;7.57;2.80;;;14.30;99.90;;;;;;5114735;27;37615;-59
2022/09/22 09:19:57;;;;;;;4.50;2.00;;;14.40;99.90;;;;;;5114974;27;36108;-59
2022/09/22 09:22:30;;;;;;;5.63;2.17;;;14.50;99.90;;;;;;5114415;27;37226;-59
2022/09/22 09:25:01;;;;;;;;;;;14.60;99.90;;;;;;5114785;27;36416;-59
2022/09/22 09:27:33;;;;;;;7.05;1.92;;;14.70;99.90;;;;;;5114641;27;38500;-59
2022/09/22 09:30:07;;;;;;;6.47;1.80;;;14.80;99.90;;;;;;5114386;27;38704;-59
2022/09/22 09:32:42;;;;;;;8.32;1.90;;;14.90;99.90;;;;;;5114832;27;37702;-59
2022/09/22 09:35:14;;;;;;;5.55;1.48;;;14.90;99.90;;;;;;5114345;27;37509;-59
2022/09/22 09:37:45;;;;;;;7.85;2.00;;;15.00;99.90;;;;;;5114797;27;36372;-59
2022/09/22 09:40:16;;;;;;;6.03;1.55;;;15.10;99.60;;;;;;5114556;27;39212;-59
2022/09/22 09:42:46;;;;;;;5.95;1.08;;;15.20;99.30;;;;;;5115289;27;37958;-59
2022/09/22 09:45:15;;;;;;;4.68;1.67;;;15.30;98.90;;;;;;5114445;27;35405;-59
2022/09/22 09:47:59;;;;;;;5.20;1.48;;;15.40;98.50;;;;;;5113561;27;38190;-59
2022/09/22 09:50:30;;;;;;;4.25;1.27;;;15.50;98.00;;;;;;5114838;27;37079;-59
2022/09/22 09:52:58;;;;;;;7.40;1.77;;;15.60;98.10;;;;;;5114344;27;37951;-59
2022/09/22 09:55:26;;;;;;;4.75;1.17;;;15.70;97.70;;;;;;5114994;27;36271;-58
2022/09/22 09:58:09;;;;;;;4.53;1.40;;;15.80;97.40;;;;;;5114086;27;39664;-58
2022/09/22 10:00:55;;;;;;;4.85;1.33;;;15.80;96.50;;;;;;5114367;27;38324;-58
2022/09/22 10:03:28;;;;;;;3.47;1.20;;;15.90;96.20;;;;;;5114677;27;37033;-58
2022/09/22 10:06:01;;;;;;;3.65;1.58;;;16.00;96.40;;;;;;5113731;27;36823;-58
2022/09/22 10:08:33;;;;;;;;;;;16.10;96.20;;;;;;5114463;27;37086;-58
2022/09/22 10:11:01;;;;;;;8.15;1.67;;;16.20;96.80;;;;;;5115032;27;38239;-58
2022/09/22 10:13:34;;;;;;;6.95;1.98;;;16.30;95.80;;;;;;5117855;27;37873;-58
2022/09/22 10:16:29;;;;;;;6.50;1.55;;;16.40;94.70;;;;;;5116825;27;35329;-58
2022/09/22 10:19:18;;;;;;;6.38;1.63;;;16.50;95.00;;;;;;5118121;27;38402;-58
2022/09/22 10:21:47;;;;;;;6.40;1.98;;;16.60;94.70;;;;;;5117453;27;37784;-58
2022/09/22 10:24:30;;;;;;;7.90;1.90;;;16.60;94.90;;;;;;5118391;27;38236;-58
2022/09/22 10:26:58;;;;;;;6.78;1.85;;;16.70;94.60;;;;;;5116147;27;36691;-58
2022/09/22 10:29:26;;;;;;;4.80;1.98;;;16.70;94.10;;;;;;5117644;27;38299;-58
2022/09/22 10:32:02;;;;;;;6.10;2.30;;;16.80;93.60;;;;;;5117617;27;37083;-58
2022/09/22 10:34:31;;;;;;;5.57;2.00;;;16.90;93.20;;;;;;5117529;27;38769;-58
2022/09/22 10:37:02;;;;;;;6.25;1.70;;;16.90;93.90;;;;;;5116410;27;36276;-58
2022/09/22 10:39:36;;;;;;;8.75;2.03;;;16.90;93.70;;;;;;5118013;27;38317;-58
2022/09/22 10:42:12;;;;;;;5.95;1.98;;;17.00;93.20;;;;;;5117549;27;38196;-58
2022/09/22 10:44:39;;;;;;;7.13;1.92;;;17.10;93.20;;;;;;5117333;27;37197;-58
2022/09/22 10:47:23;;;;;;;5.38;2.05;;;17.20;93.10;;;;;;5116912;27;36596;-58
2022/09/22 10:50:06;;;;;;;8.35;1.90;;;17.20;93.10;;;;;;5116935;27;38062;-58
2022/09/22 10:52:41;;;;;;;;;;;17.30;93.30;;;;;;5116938;27;37476;-58
2022/09/22 10:55:19;;;;;;;7.05;2.00;;;17.40;93.40;;;;;;5117473;27;37272;-58
2022/09/22 10:58:06;;;;;;;5.97;2.10;;;17.50;92.20;;;;;;5116312;27;36611;-58
2022/09/22 11:00:35;;;;;;;4.90;2.05;;;17.50;90.60;;;;;;5117322;27;37722;-58
2022/09/22 11:03:31;;;;;;;4.20;1.60;;;17.60;90.70;;;;;;5115468;27;37933;-59
2022/09/22 11:12:22;;;;;;;7.90;2.17;;;17.60;90.30;;;;;;5113478;27;38464;-59
2022/09/22 11:15:19;;;;;;;9.05;2.35;;;17.50;91.10;;;;;;5114814;27;37359;-59
2022/09/22 11:18:21;;;;;;;3.20;1.05;;;17.60;91.60;;;;;;5114551;27;37751;-59
2022/09/22 11:20:52;;;;;;;5.45;1.48;;;17.70;91.00;;;;;;5101473;27;36809;-59
2022/09/22 11:23:50;;;;;;;4.72;1.60;;;17.60;91.30;;;;;;5115897;27;38673;-59
2022/09/22 11:26:32;;;;;;;5.07;1.40;;;17.70;90.10;;;;;;5111124;27;36933;-59
2022/09/22 11:29:36;;;;;;;4.10;1.63;;;17.80;88.50;;;;;;5115412;27;37801;-59
2022/09/22 11:32:11;;;;;;;5.25;1.67;;;17.80;86.70;;;;;;5115837;27;36666;-59
2022/09/22 11:35:12;;;;;;;6.25;2.08;;;17.80;87.90;;;;;;5115439;27;38346;-59
2022/09/22 11:37:50;;;;;;;7.20;1.25;;;17.80;87.00;;;;;;5113944;27;37466;-60
2022/09/22 11:40:26;;;;;;;4.10;1.00;;;17.70;89.00;;;;;;5115892;27;38055;-59
2022/09/22 11:43:04;;;;;;;7.43;1.73;;;17.70;90.20;;;;;;5115718;27;35513;-59
2022/09/22 11:45:48;;;;;;;4.60;1.27;;;17.60;90.70;;;;;;5115778;27;37407;-59
2022/09/22 11:48:31;;;;;;;5.10;2.10;;;17.70;90.30;;;;;;5114160;27;36204;-59
2022/09/22 11:51:15;;;;;;;8.15;2.40;;;17.70;91.10;;;;;;5114504;27;35867;-59
2022/09/22 11:54:00;;;;;;;7.30;2.13;;;17.70;91.20;;;;;;5115588;27;37306;-59
2022/09/22 11:56:37;;;;;;;10.45;3.13;;;17.80;90.40;;;;;;5115437;27;37587;-59
2022/09/22 11:59:14;;;;;;;7.82;2.42;;;17.70;89.40;;;;;;5114917;27;37265;-59
2022/09/22 12:01:41;;;;;;;6.30;2.55;;;17.50;88.60;;;;;;5115304;27;35823;-59
2022/09/22 12:04:18;;;;;;;5.55;2.40;;;17.40;90.20;;;;;;5115559;27;36768;-59
2022/09/22 12:06:49;;;;;;;7.60;2.40;;;17.40;90.60;;;;;;5114136;27;38157;-59
2022/09/22 12:09:29;;;;;;;10.10;2.95;;;17.40;90.60;;;;;;5114002;27;37212;-59
2022/09/22 12:11:59;;;;;;;8.50;2.70;;;17.30;90.60;;;;;;5113981;27;35912;-59
2022/09/22 12:14:28;;;;;;;9.55;2.90;;;17.20;90.20;;;;;;5113577;27;36943;-59
2022/09/22 12:17:01;;;;;;;5.60;2.50;;;17.30;89.40;;;;;;5113119;27;37684;-59
2022/09/22 12:19:39;;;;;;;8.35;3.00;;;17.20;87.40;;;;;;5114077;27;38231;-59
2022/09/22 12:22:16;;;;;;;6.80;2.85;;;17.20;85.90;;;;;;5115538;27;38433;-59
2022/09/22 12:24:46;;;;;;;7.28;2.90;;;17.10;84.50;;;;;;5115245;27;36374;-60
2022/09/22 12:27:21;;;;;;;8.30;2.78;;;17.10;83.80;;;;;;5114305;27;37416;-59
2022/09/22 12:29:59;;;;;;;7.72;2.65;;;17.10;85.10;;;;;;5114041;27;37159;-59
2022/09/22 12:32:34;;;;;;;7.53;3.10;;;17.20;86.20;;;;;;5114562;27;36911;-59
2022/09/22 12:35:02;;;;;;;6.82;2.20;;;17.10;85.80;;;;;;5113773;27;37360;-59
2022/09/22 12:37:32;;;;;;;8.10;2.38;;;17.10;86.10;;;;;;5114525;27;36276;-59
2022/09/22 12:40:21;;;;;;;6.93;2.15;;;17.00;86.60;;;;;;5114393;27;38420;-59
2022/09/22 12:42:52;;;;;;;7.10;2.38;;;17.00;88.90;;;;;;5115497;27;37567;-59
2022/09/22 12:45:28;;;;;;;6.07;2.10;;;17.00;90.00;;;;;;5113437;27;35361;-59
2022/09/22 12:47:57;;;;;;;7.72;3.45;;;17.10;88.70;;;;;;5113383;27;38215;-59
2022/09/22 12:50:34;;;;;;;7.15;2.53;;;17.10;88.00;;;;;;5113628;27;37373;-58
2022/09/22 12:53:04;;;;;;;8.02;2.63;;;17.20;86.70;;;;;;5114522;27;37172;-59
2022/09/22 12:55:38;;;;;;;10.15;3.80;;;17.20;86.90;;;;;;5115141;27;37307;-59
2022/09/22 12:58:41;;;;;;;10.10;2.80;;;17.20;86.30;;;;;;5113463;27;37866;-60
2022/09/22 13:01:33;;;;;;;6.87;2.20;;;17.10;86.40;;;;;;5113443;27;37066;-60
2022/09/22 13:04:12;;;;;;;6.25;2.42;;;17.00;87.00;;;;;;5114116;27;36738;-59
2022/09/22 13:06:58;;;;;;;8.30;2.50;;;16.90;85.80;;;;;;5114271;27;37385;-59
2022/09/22 13:09:29;;;;;;;11.68;2.80;;;16.90;84.20;;;;;;5113608;27;37507;-59
2022/09/22 13:12:24;;;;;;;7.15;1.98;;;16.90;84.80;;;;;;5114794;27;36046;-59
2022/09/22 13:15:22;;;;;;;5.85;2.13;;;16.90;85.90;;;;;;5113126;27;37931;-59
2022/09/22 13:17:51;;;;;;;6.53;2.38;;;17.00;85.80;;;;;;5114035;27;36546;-59
2022/09/22 13:20:24;;;;;;;6.78;2.35;;;17.00;85.40;;;;;;5113954;27;38394;-59
2022/09/22 13:22:54;;;;;;;6.63;2.63;;;17.00;87.00;;;;;;5114232;27;37959;-58
2022/09/22 13:25:24;;;;;;;6.95;2.60;;;17.10;86.50;;;;;;5114219;27;37442;-58
2022/09/22 13:28:13;;;;;;;8.27;3.20;;;17.00;87.10;;;;;;5114672;27;36428;-58
2022/09/22 13:30:42;;;;;;;8.77;3.03;;;17.10;87.00;;;;;;5114556;27;36414;-58
2022/09/22 13:33:24;;;;;;;6.07;2.33;;;17.00;85.50;;;;;;5114735;27;37522;-58
2022/09/22 13:36:02;;;;;;;7.40;2.63;;;17.00;85.20;;;;;;5114133;27;37102;-58